Time;durP1;ratioP1;P1;durP2;ratioP2;P2;SDS_P1;SDS_P2;PMS_P1;PMS_P2;Temp;Humidity;BMP_temperature;BMP_pressure;BME280_temperature;BME280_humidity;BME280_pressure;Samples;Min_cycle;Max_cycle;Signal;HPM_P1;HPM_P2
2023/09/01 00:00:26;;;;;;;5.47;2.07;;;;;16.00;96966.00;;;;5023321;28;20284;-89
2023/09/01 00:03:16;;;;;;;4.13;2.27;;;;;16.10;96967.00;;;;5015490;28;20690;-88
2023/09/01 00:06:12;;;;;;;3.03;2.53;;;;;16.10;96965.00;;;;5015739;28;20253;-89
2023/09/01 00:09:04;;;;;;;3.27;2.83;;;;;16.10;96977.00;;;;5010400;28;20201;-88
2023/09/01 00:11:53;;;;;;;2.27;2.07;;;;;15.90;96976.00;;;;5009978;28;20675;-89
2023/09/01 00:14:42;;;;;;;3.30;2.40;;;;;16.00;96973.00;;;;5007443;28;20234;-89
2023/09/01 00:17:31;;;;;;;3.00;2.70;;;;;15.80;96980.00;;;;5018070;28;20209;-88
2023/09/01 00:20:20;;;;;;;2.43;2.30;;;;;15.80;96969.00;;;;5017414;28;20216;-89
2023/09/01 00:23:09;;;;;;;4.90;1.90;;;;;16.00;96963.00;;;;5013493;28;20212;-88
2023/09/01 00:26:01;;;;;;;2.57;2.37;;;;;16.10;96966.00;;;;5011083;28;20225;-88
2023/09/01 00:28:50;;;;;;;6.47;2.63;;;;;16.10;96961.00;;;;5018966;28;20210;-88
2023/09/01 00:31:39;;;;;;;2.53;2.30;;;;;16.10;96958.00;;;;5019497;28;20198;-88
2023/09/01 00:34:30;;;;;;;2.50;2.30;;;;;15.90;96966.00;;;;5020193;28;20734;-87
2023/09/01 00:37:19;;;;;;;2.17;1.97;;;;;16.00;96965.00;;;;5020088;28;20206;-88
2023/09/01 00:40:09;;;;;;;1.87;1.77;;;;;16.00;96965.00;;;;5017345;28;20218;-88
2023/09/01 00:42:59;;;;;;;2.67;2.40;;;;;15.90;96971.00;;;;5011058;28;20201;-88
2023/09/01 00:45:49;;;;;;;2.97;2.77;;;;;15.80;96970.00;;;;5019983;28;20233;-88
2023/09/01 00:48:39;;;;;;;5.30;3.00;;;;;15.70;96973.00;;;;5019852;28;20235;-88
2023/09/01 00:51:29;;;;;;;2.43;2.23;;;;;15.70;96977.00;;;;5017112;28;20684;-87
2023/09/01 00:54:18;;;;;;;3.17;2.07;;;;;15.90;96969.00;;;;5014782;28;20230;-86
2023/09/01 00:57:07;;;;;;;4.00;2.80;;;;;15.90;96970.00;;;;5016152;28;20198;-89
2023/09/01 00:59:58;;;;;;;2.47;2.27;;;;;16.00;96969.00;;;;5033615;23;20227;-72
2023/09/01 01:02:47;;;;;;;5.57;2.10;;;;;16.00;96967.00;;;;5062323;28;20203;-71
2023/09/01 01:05:43;;;;;;;8.43;2.73;;;;;15.90;96967.00;;;;5069478;28;20200;-71
2023/09/01 01:08:35;;;;;;;2.50;2.30;;;;;15.90;96965.00;;;;5070179;28;20238;-71
2023/09/01 01:11:31;;;;;;;4.23;2.30;;;;;15.90;96970.00;;;;5062381;28;20196;-71
2023/09/01 01:14:24;;;;;;;2.47;2.07;;;;;15.40;96966.00;;;;5070328;28;20243;-74
2023/09/01 01:17:18;;;;;;;4.37;2.23;;;;;15.60;96965.00;;;;5057706;28;20209;-72
2023/09/01 01:20:26;;;;;;;4.37;2.33;;;;;15.70;96980.00;;;;5065543;28;20215;-71
2023/09/01 01:23:17;;;;;;;2.00;1.80;;;;;15.80;96981.00;;;;5050965;28;20208;-72
2023/09/01 01:26:08;;;;;;;4.03;2.67;;;;;15.70;96978.00;;;;5056960;28;20207;-72
2023/09/01 01:28:57;;;;;;;2.57;2.37;;;;;15.70;96984.00;;;;5053659;28;20231;-72
2023/09/01 01:31:46;;;;;;;2.50;2.30;;;;;15.80;96980.00;;;;5062239;28;20207;-73
2023/09/01 01:34:38;;;;;;;2.40;2.20;;;;;15.80;96982.00;;;;5059858;28;20699;-72
2023/09/01 01:37:36;;;;;;;4.63;2.40;;;;;15.40;96975.00;;;;5050049;28;20262;-72
2023/09/01 01:40:30;;;;;;;2.30;2.13;;;;;15.50;96973.00;;;;5059067;28;20220;-72
2023/09/01 01:43:23;;;;;;;4.53;2.07;;;;;15.50;96982.00;;;;5058405;28;20207;-72
2023/09/01 01:46:12;;;;;;;2.90;2.60;;;;;15.40;96975.00;;;;5058800;28;20605;-72
2023/09/01 01:49:01;;;;;;;3.17;2.67;;;;;15.20;96974.00;;;;5070184;28;20234;-72
2023/09/01 01:51:50;;;;;;;2.97;2.67;;;;;15.10;96971.00;;;;5065397;28;20205;-71
2023/09/01 01:54:39;;;;;;;2.90;2.60;;;;;15.20;96967.00;;;;5069379;28;20232;-72
2023/09/01 01:57:29;;;;;;;2.67;2.37;;;;;15.40;96971.00;;;;5069777;28;20917;-72
2023/09/01 02:00:19;;;;;;;4.90;2.53;;;;;15.40;96971.00;;;;5054107;28;20232;-72
2023/09/01 02:03:08;;;;;;;2.70;2.50;;;;;15.40;96962.00;;;;5057210;28;20218;-72
2023/09/01 02:05:57;;;;;;;4.67;2.67;;;;;15.50;96968.00;;;;5054658;28;20659;-72
2023/09/01 02:08:46;;;;;;;4.33;3.03;;;;;15.50;96982.00;;;;5048706;28;20571;-72
2023/09/01 02:11:35;;;;;;;4.93;2.63;;;;;15.40;96980.00;;;;5069037;28;20215;-72
2023/09/01 02:14:25;;;;;;;2.70;2.43;;;;;15.50;96982.00;;;;5060436;28;20200;-71
2023/09/01 02:17:14;;;;;;;5.63;2.33;;;;;15.70;96977.00;;;;5057380;28;20208;-72
2023/09/01 02:20:11;;;;;;;2.60;2.40;;;;;15.70;96975.00;;;;5064563;28;20219;-71
2023/09/01 02:23:00;;;;;;;2.43;2.23;;;;;15.80;96964.00;;;;5069312;28;20200;-71
2023/09/01 02:25:49;;;;;;;2.90;2.20;;;;;15.80;96965.00;;;;5049703;28;20192;-72
2023/09/01 02:28:38;;;;;;;2.40;2.20;;;;;15.70;96968.00;;;;5058272;28;20228;-72
2023/09/01 02:31:28;;;;;;;4.30;2.10;;;;;15.60;96960.00;;;;5067142;28;20207;-71
2023/09/01 02:34:17;;;;;;;2.87;1.90;;;;;15.50;96965.00;;;;5070104;28;20588;-71
2023/09/01 02:37:06;;;;;;;2.53;2.33;;;;;15.60;96957.00;;;;5063249;28;20575;-72
2023/09/01 02:39:55;;;;;;;5.73;3.03;;;;;15.60;96956.00;;;;5070048;28;20223;-72
2023/09/01 02:42:44;;;;;;;4.93;2.90;;;;;15.60;96945.00;;;;5059368;28;20206;-71
2023/09/01 02:45:33;;;;;;;3.43;2.87;;;;;15.50;96948.00;;;;5061329;28;20211;-72
2023/09/01 02:48:23;;;;;;;5.60;2.87;;;;;15.70;96956.00;;;;5059553;28;20205;-72
2023/09/01 02:51:12;;;;;;;3.10;2.90;;;;;15.70;96964.00;;;;5056818;28;20755;-72
2023/09/01 02:54:02;;;;;;;3.17;2.97;;;;;15.50;96972.00;;;;5055051;28;20207;-72
2023/09/01 02:56:53;;;;;;;3.67;2.10;;;;;15.40;96977.00;;;;5058004;28;20229;-72
2023/09/01 02:59:42;;;;;;;2.87;2.67;;;;;15.40;96982.00;;;;5049637;28;20224;-71
2023/09/01 03:02:31;;;;;;;4.50;2.70;;;;;15.50;96986.00;;;;5066701;28;20682;-72
2023/09/01 03:05:24;;;;;;;3.47;2.40;;;;;15.30;96975.00;;;;5059523;28;20607;-71
2023/09/01 03:08:13;;;;;;;3.53;2.60;;;;;15.10;96975.00;;;;5057164;28;20204;-73
2023/09/01 03:11:03;;;;;;;4.50;2.43;;;;;15.20;96975.00;;;;5053549;28;20206;-71
2023/09/01 03:13:52;;;;;;;4.97;2.53;;;;;15.30;96978.00;;;;5049570;28;20205;-72
2023/09/01 03:16:43;;;;;;;3.17;2.87;;;;;15.50;96976.00;;;;5048947;28;20225;-71
2023/09/01 03:19:32;;;;;;;4.53;2.50;;;;;15.60;96963.00;;;;5063351;28;20775;-71
2023/09/01 03:22:23;;;;;;;6.57;2.80;;;;;15.40;96966.00;;;;5057407;28;20223;-72
2023/09/01 03:25:12;;;;;;;2.50;2.23;;;;;15.30;96964.00;;;;5063222;28;20200;-71
2023/09/01 03:28:01;;;;;;;4.10;2.70;;;;;15.40;96961.00;;;;5057015;28;20223;-71
2023/09/01 03:30:50;;;;;;;3.30;3.00;;;;;15.30;96952.00;;;;5057532;28;20215;-71
2023/09/01 03:33:39;;;;;;;3.57;2.67;;;;;15.30;96957.00;;;;5057262;28;20208;-71
2023/09/01 03:36:28;;;;;;;3.37;3.00;;;;;15.40;96952.00;;;;5048817;28;20271;-71
2023/09/01 03:39:19;;;;;;;2.57;2.37;;;;;15.40;96963.00;;;;5056530;28;20227;-71
2023/09/01 03:42:08;;;;;;;3.47;3.17;;;;;15.30;96970.00;;;;5056215;28;20215;-71
2023/09/01 03:44:57;;;;;;;5.40;3.20;;;;;15.20;96961.00;;;;5061494;28;20199;-71
2023/09/01 03:47:46;;;;;;;4.10;2.87;;;;;15.40;96953.00;;;;5059037;28;20671;-72
2023/09/01 03:50:35;;;;;;;4.13;2.53;;;;;15.50;96968.00;;;;5059053;28;20555;-72
2023/09/01 03:53:24;;;;;;;3.17;2.63;;;;;15.40;96966.00;;;;5051753;28;20234;-72
2023/09/01 03:56:17;;;;;;;3.93;2.30;;;;;15.50;96974.00;;;;5055827;28;20619;-71
2023/09/01 03:59:06;;;;;;;4.83;3.30;;;;;15.70;96974.00;;;;5072171;23;20239;-85
2023/09/01 04:01:55;;;;;;;3.50;3.20;;;;;15.80;96980.00;;;;5033956;28;20224;-85
2023/09/01 04:04:44;;;;;;;4.20;3.00;;;;;15.90;96977.00;;;;5026986;28;20687;-85
2023/09/01 04:07:33;;;;;;;2.70;2.50;;;;;15.70;96976.00;;;;5037700;28;20804;-85
2023/09/01 04:10:22;;;;;;;3.30;2.87;;;;;15.60;96989.00;;;;5048985;28;20231;-85
2023/09/01 04:13:13;;;;;;;8.90;3.00;;;;;15.50;96998.00;;;;5040734;28;20202;-85
2023/09/01 04:16:02;;;;;;;2.80;2.60;;;;;15.40;96990.00;;;;5022009;28;20605;-85
2023/09/01 04:18:51;;;;;;;3.13;2.83;;;;;15.70;96996.00;;;;5018860;28;20701;-85
2023/09/01 04:21:40;;;;;;;7.80;2.87;;;;;15.70;96999.00;;;;5038822;28;20331;-85
2023/09/01 04:24:29;;;;;;;2.83;2.30;;;;;15.60;96996.00;;;;5029811;28;20676;-85
2023/09/01 04:27:18;;;;;;;3.17;2.87;;;;;15.60;97001.00;;;;5048152;28;20212;-85
2023/09/01 04:30:11;;;;;;;6.27;3.47;;;;;15.70;96988.00;;;;5044657;28;20215;-85
2023/09/01 04:33:00;;;;;;;3.80;3.30;;;;;15.60;96983.00;;;;5037900;28;20211;-86
2023/09/01 04:35:58;;;;;;;4.43;3.13;;;;;15.50;96993.00;;;;5029602;28;20237;-84
2023/09/01 04:38:48;;;;;;;4.80;3.10;;;;;15.60;96985.00;;;;5034046;28;20204;-85
2023/09/01 04:41:37;;;;;;;7.33;2.80;;;;;15.50;96990.00;;;;5047430;28;20721;-85
2023/09/01 04:44:26;;;;;;;2.87;2.40;;;;;15.50;96996.00;;;;5030756;28;20209;-84
2023/09/01 04:47:16;;;;;;;5.73;3.27;;;;;15.20;97000.00;;;;5035830;28;20583;-85
2023/09/01 04:50:06;;;;;;;3.13;2.83;;;;;15.20;96999.00;;;;5031317;28;20570;-85
2023/09/01 04:52:55;;;;;;;7.60;3.40;;;;;15.40;97007.00;;;;5047275;28;20197;-85
2023/09/01 04:55:44;;;;;;;3.10;2.60;;;;;15.70;97003.00;;;;5029091;28;20586;-85
2023/09/01 04:58:33;;;;;;;3.20;2.90;;;;;16.00;96998.00;;;;5030891;28;20200;-86
2023/09/01 05:01:22;;;;;;;4.77;2.50;;;;;16.00;96992.00;;;;5042442;28;20225;-85
2023/09/01 05:04:14;;;;;;;7.40;3.43;;;;;16.10;97001.00;;;;5040972;28;20295;-84
2023/09/01 05:07:04;;;;;;;2.60;2.40;;;;;16.00;97002.00;;;;5037847;28;20205;-85
2023/09/01 05:09:54;;;;;;;3.83;3.13;;;;;16.20;96988.00;;;;5042698;28;20483;-85
2023/09/01 05:12:43;;;;;;;5.10;3.33;;;;;16.30;97007.00;;;;5030879;28;20224;-85
2023/09/01 05:15:32;;;;;;;2.60;2.40;;;;;16.30;97002.00;;;;5029666;28;20212;-85
2023/09/01 05:18:21;;;;;;;4.23;2.90;;;;;16.10;96997.00;;;;5045238;28;20216;-85
2023/09/01 05:21:11;;;;;;;4.20;3.67;;;;;16.00;97006.00;;;;5043494;28;20232;-86
2023/09/01 05:24:01;;;;;;;2.70;2.50;;;;;15.90;96996.00;;;;5037000;28;20585;-87
2023/09/01 05:26:50;;;;;;;2.77;2.53;;;;;15.80;97013.00;;;;5044727;28;20206;-88
2023/09/01 05:29:39;;;;;;;3.47;2.97;;;;;16.00;97009.00;;;;5044582;28;20443;-85
2023/09/01 05:32:30;;;;;;;3.23;2.93;;;;;16.20;97009.00;;;;5035598;28;20585;-86
2023/09/01 05:35:19;;;;;;;3.47;3.17;;;;;16.30;97007.00;;;;5037519;28;20209;-86
2023/09/01 05:38:10;;;;;;;5.20;3.90;;;;;16.00;97003.00;;;;5033402;28;20242;-86
2023/09/01 05:40:59;;;;;;;4.70;2.97;;;;;16.10;96985.00;;;;5046093;28;20225;-87
2023/09/01 05:43:48;;;;;;;4.10;2.90;;;;;16.40;97004.00;;;;5042767;28;20201;-88
2023/09/01 05:46:37;;;;;;;4.00;3.10;;;;;16.40;97016.00;;;;5050076;28;20204;-85
2023/09/01 05:49:27;;;;;;;4.50;2.97;;;;;16.40;97016.00;;;;5049690;28;20215;-87
2023/09/01 05:52:16;;;;;;;3.83;2.87;;;;;16.00;96998.00;;;;5032440;28;20232;-86
2023/09/01 05:55:07;;;;;;;4.43;2.37;;;;;15.90;96996.00;;;;5039202;28;20201;-86
2023/09/01 05:57:56;;;;;;;3.33;3.03;;;;;16.00;96997.00;;;;5038177;28;20740;-86
2023/09/01 06:00:45;;;;;;;3.23;2.93;;;;;16.10;96997.00;;;;5051531;28;20263;-88
2023/09/01 06:03:34;;;;;;;3.57;3.17;;;;;16.30;96999.00;;;;5043194;28;20215;-87
2023/09/01 06:06:23;;;;;;;4.77;3.63;;;;;16.30;97017.00;;;;5043408;28;20206;-86
2023/09/01 06:09:12;;;;;;;3.60;3.00;;;;;16.20;97006.00;;;;5034651;28;20209;-87
2023/09/01 06:12:03;;;;;;;4.17;3.63;;;;;16.20;97001.00;;;;5025422;28;20217;-86
2023/09/01 06:14:52;;;;;;;3.37;3.07;;;;;16.40;97016.00;;;;5026576;28;20575;-88
2023/09/01 06:17:41;;;;;;;4.53;3.57;;;;;16.50;97020.00;;;;5047734;28;20228;-88
2023/09/01 06:20:34;;;;;;;3.27;2.97;;;;;16.70;97018.00;;;;5048302;28;20287;-88
2023/09/01 06:23:23;;;;;;;3.10;2.80;;;;;16.80;97024.00;;;;5034776;28;20200;-88
2023/09/01 06:26:12;;;;;;;5.13;4.07;;;;;16.80;97020.00;;;;5025870;28;20201;-88
2023/09/01 06:29:03;;;;;;;3.27;2.93;;;;;17.10;97030.00;;;;5023662;28;20201;-88
2023/09/01 06:31:52;;;;;;;6.60;5.07;;;;;17.10;97028.00;;;;5019609;28;20229;-88
2023/09/01 06:34:41;;;;;;;7.80;4.40;;;;;17.40;97019.00;;;;5029190;28;20212;-88
2023/09/01 06:37:31;;;;;;;5.50;3.40;;;;;18.00;97009.00;;;;5028784;28;20232;-88
2023/09/01 06:40:20;;;;;;;5.40;4.53;;;;;18.40;97015.00;;;;5029724;28;20240;-88
2023/09/01 06:43:09;;;;;;;9.87;6.60;;;;;18.50;97007.00;;;;5022935;28;20213;-87
2023/09/01 06:45:59;;;;;;;8.77;5.43;;;;;19.00;97002.00;;;;5025766;28;20196;-89
2023/09/01 06:48:49;;;;;;;6.63;5.37;;;;;19.10;97010.00;;;;5020082;28;20279;-87
2023/09/01 06:51:38;;;;;;;9.27;5.90;;;;;19.00;97011.00;;;;5043773;28;20224;-86
2023/09/01 06:54:28;;;;;;;7.83;5.03;;;;;19.30;97005.00;;;;5027775;28;20706;-87
2023/09/01 06:57:17;;;;;;;12.47;7.07;;;;;19.30;97007.00;;;;5030649;28;20225;-87
2023/09/01 07:00:09;;;;;;;8.07;5.30;;;;;19.50;97005.00;;;;5023753;28;20698;-87
2023/09/01 07:02:59;;;;;;;11.43;5.07;;;;;19.60;97015.00;;;;5021389;28;20208;-88
2023/09/01 07:05:55;;;;;;;11.33;5.77;;;;;19.70;97020.00;;;;5037371;28;20201;-87
2023/09/01 07:08:44;;;;;;;13.63;6.20;;;;;19.60;97023.00;;;;5038747;28;20205;-87
2023/09/01 07:11:33;;;;;;;18.50;6.60;;;;;19.70;97014.00;;;;5047582;28;20235;-87
2023/09/01 07:14:22;;;;;;;7.83;5.23;;;;;19.80;97022.00;;;;5027039;28;20211;-88
2023/09/01 07:17:13;;;;;;;10.57;6.50;;;;;20.00;97023.00;;;;5043654;28;20239;-87
2023/09/01 07:20:04;;;;;;;9.70;5.70;;;;;20.00;97030.00;;;;5027822;28;20592;-89
2023/09/01 07:22:53;;;;;;;8.93;5.60;;;;;19.60;97030.00;;;;5031992;28;20255;-87
2023/09/01 07:25:44;;;;;;;10.60;5.63;;;;;19.60;97027.00;;;;5046924;28;20205;-87
2023/09/01 07:28:33;;;;;;;12.83;6.13;;;;;19.90;97033.00;;;;5047370;28;20203;-87
2023/09/01 07:31:23;;;;;;;9.07;5.17;;;;;20.20;97035.00;;;;5022594;28;20229;-87
2023/09/01 07:34:12;;;;;;;10.87;6.10;;;;;20.00;97036.00;;;;5028554;28;20204;-87
2023/09/01 07:37:03;;;;;;;12.47;6.27;;;;;20.40;97046.00;;;;5021353;28;20193;-86
2023/09/01 07:39:52;;;;;;;8.90;5.27;;;;;19.90;97050.00;;;;5032885;28;20201;-86
2023/09/01 07:42:41;;;;;;;10.30;5.07;;;;;19.90;97044.00;;;;5039080;28;20202;-87
2023/09/01 07:45:30;;;;;;;11.07;5.67;;;;;20.00;97043.00;;;;5047899;28;20212;-87
2023/09/01 07:48:19;;;;;;;6.50;5.63;;;;;20.10;97043.00;;;;5034716;28;20588;-87
2023/09/01 07:51:10;;;;;;;9.43;5.53;;;;;20.30;97051.00;;;;5028508;28;20229;-87
2023/09/01 07:54:00;;;;;;;7.57;5.43;;;;;20.70;97032.00;;;;5028168;28;20200;-87
2023/09/01 07:56:49;;;;;;;11.77;7.03;;;;;21.00;97036.00;;;;5018793;28;20211;-85
2023/09/01 07:59:39;;;;;;;6.57;5.63;;;;;21.30;97031.00;;;;5037250;28;20212;-87
2023/09/01 08:02:29;;;;;;;9.27;6.37;;;;;21.70;97035.00;;;;5029368;28;20216;-87
2023/09/01 08:05:18;;;;;;;8.20;5.30;;;;;21.90;97032.00;;;;5043150;28;20209;-87
2023/09/01 08:08:07;;;;;;;7.23;5.17;;;;;22.30;97024.00;;;;5026674;28;20571;-87
2023/09/01 08:10:58;;;;;;;6.50;4.80;;;;;22.40;97027.00;;;;5025445;28;20572;-88
2023/09/01 08:13:47;;;;;;;7.70;5.23;;;;;22.50;97032.00;;;;5041487;28;20209;-87
2023/09/01 08:16:36;;;;;;;5.37;4.10;;;;;22.50;97027.00;;;;5050233;28;20205;-86
2023/09/01 08:19:25;;;;;;;7.87;5.13;;;;;22.80;97022.00;;;;5043183;28;20220;-88
2023/09/01 08:22:14;;;;;;;13.67;4.33;;;;;22.60;97029.00;;;;5032320;28;20602;-87
2023/09/01 08:25:04;;;;;;;7.77;4.77;;;;;22.60;97023.00;;;;5025657;28;20209;-87
2023/09/01 08:27:54;;;;;;;7.47;5.03;;;;;23.00;97024.00;;;;5024585;28;20204;-86
2023/09/01 08:30:43;;;;;;;6.43;4.53;;;;;23.10;97020.00;;;;5040380;28;20232;-87
2023/09/01 08:33:33;;;;;;;6.93;3.83;;;;;23.30;97023.00;;;;5042338;28;20207;-87
2023/09/01 08:36:22;;;;;;;4.90;4.40;;;;;23.40;97018.00;;;;5045687;28;20596;-87
2023/09/01 08:39:11;;;;;;;7.47;4.50;;;;;23.70;97014.00;;;;5039080;28;20228;-87
2023/09/01 08:42:01;;;;;;;6.23;4.90;;;;;23.90;97016.00;;;;5028884;28;20654;-87
2023/09/01 08:44:54;;;;;;;7.47;4.27;;;;;24.10;97021.00;;;;5043104;28;20200;-85
2023/09/01 08:47:46;;;;;;;5.37;3.40;;;;;24.40;97029.00;;;;5035022;28;20416;-87
2023/09/01 08:50:47;;;;;;;5.33;3.57;;;;;24.00;97016.00;;;;5061062;28;20208;-87
2023/09/01 08:53:39;;;;;;;6.10;3.40;;;;;24.10;97018.00;;;;5036221;28;20301;-87
2023/09/01 08:56:30;;;;;;;3.20;2.67;;;;;23.60;97018.00;;;;5039330;28;20201;-86
2023/09/01 08:59:19;;;;;;;7.13;2.63;;;;;23.20;97021.00;;;;5043652;28;20228;-86
2023/09/01 09:02:10;;;;;;;4.57;2.60;;;;;23.60;97021.00;;;;5030954;28;20223;-86
2023/09/01 09:04:59;;;;;;;4.00;2.63;;;;;23.80;97026.00;;;;5032558;28;20232;-87
2023/09/01 09:07:58;;;;;;;5.37;2.53;;;;;24.10;97028.00;;;;5033160;28;20208;-87
2023/09/01 09:10:48;;;;;;;3.43;2.97;;;;;24.10;97026.00;;;;5050756;28;20236;-87
2023/09/01 09:13:37;;;;;;;4.87;2.60;;;;;24.50;97031.00;;;;5047902;28;20204;-85
2023/09/01 09:16:26;;;;;;;3.30;2.77;;;;;24.90;97021.00;;;;5051034;28;20212;-88
2023/09/01 09:19:18;;;;;;;4.40;2.90;;;;;25.10;97030.00;;;;5036304;28;20233;-86
2023/09/01 09:22:10;;;;;;;3.30;2.83;;;;;25.20;97017.00;;;;5029705;28;20298;-86
2023/09/01 09:24:59;;;;;;;2.60;2.40;;;;;24.70;97016.00;;;;5045172;28;20201;-85
2023/09/01 09:27:48;;;;;;;6.20;2.40;;;;;24.90;97025.00;;;;5032138;28;20208;-86
2023/09/01 09:30:37;;;;;;;2.50;2.30;;;;;25.40;97027.00;;;;5046185;28;20224;-86
2023/09/01 09:33:29;;;;;;;3.13;2.40;;;;;24.60;97020.00;;;;5052661;28;20208;-85
2023/09/01 09:36:26;;;;;;;3.70;2.80;;;;;25.00;97015.00;;;;5034911;28;20204;-87
2023/09/01 09:39:25;;;;;;;3.87;3.10;;;;;25.10;97019.00;;;;5036726;28;20225;-87
2023/09/01 09:42:14;;;;;;;3.67;2.90;;;;;25.60;97014.00;;;;5042705;28;20228;-86
2023/09/01 09:45:03;;;;;;;3.47;2.87;;;;;26.00;97016.00;;;;5036738;28;20205;-86
2023/09/01 09:47:52;;;;;;;5.67;3.03;;;;;26.10;97019.00;;;;5051380;28;20204;-86
2023/09/01 09:50:42;;;;;;;3.50;2.70;;;;;25.30;97015.00;;;;5042511;28;20686;-86
2023/09/01 09:53:33;;;;;;;3.23;2.67;;;;;26.00;97019.00;;;;5034090;28;20205;-86
2023/09/01 09:56:32;;;;;;;2.53;2.07;;;;;25.50;97020.00;;;;5037694;28;20666;-86
2023/09/01 09:59:28;;;;;;;4.17;3.23;;;;;25.90;97009.00;;;;5027351;28;20221;-86
2023/09/01 10:02:23;;;;;;;4.23;2.97;;;;;26.30;97016.00;;;;5029889;28;20222;-87
2023/09/01 10:05:14;;;;;;;5.53;2.30;;;;;26.50;97010.00;;;;5030559;28;20228;-88
2023/09/01 10:08:04;;;;;;;4.80;3.13;;;;;26.60;97016.00;;;;5039123;28;20209;-86
2023/09/01 10:10:55;;;;;;;3.30;2.70;;;;;25.50;97015.00;;;;5030139;28;20218;-86
2023/09/01 10:13:45;;;;;;;4.40;2.67;;;;;26.70;97007.00;;;;5028684;28;20206;-85
2023/09/01 10:16:34;;;;;;;4.17;2.20;;;;;26.60;97011.00;;;;5028383;28;20202;-86
2023/09/01 10:19:24;;;;;;;3.57;3.00;;;;;27.20;97010.00;;;;5028806;28;20233;-87
2023/09/01 10:22:16;;;;;;;5.93;2.60;;;;;27.00;97011.00;;;;5029264;28;20245;-88
2023/09/01 10:25:15;;;;;;;4.13;2.40;;;;;27.10;97016.00;;;;5027926;28;20210;-88
2023/09/01 10:28:10;;;;;;;2.70;2.30;;;;;27.30;97007.00;;;;5024329;28;20209;-87
2023/09/01 10:31:20;;;;;;;4.17;2.63;;;;;27.40;97014.00;;;;5022440;28;20224;-88
2023/09/01 10:34:12;;;;;;;3.10;2.50;;;;;27.80;96999.00;;;;5023168;28;20268;-88
2023/09/01 10:37:25;;;;;;;3.83;2.57;;;;;28.50;97001.00;;;;5029883;28;20203;-88
2023/09/01 10:40:41;;;;;;;2.47;1.77;;;;;28.40;97002.00;;;;5031049;28;20315;-88
2023/09/01 10:43:55;;;;;;;5.53;3.33;;;;;28.90;97003.00;;;;5024787;28;20211;-89
2023/09/01 10:46:44;;;;;;;1.33;1.23;;;;;28.80;96990.00;;;;5033102;28;20206;-88
2023/09/01 10:49:55;;;;;;;2.33;1.77;;;;;29.30;96990.00;;;;5024913;28;20203;-88
2023/09/01 10:52:46;;;;;;;2.80;1.70;;;;;29.50;96990.00;;;;5030427;28;20689;-87
2023/09/01 10:55:36;;;;;;;2.13;1.93;;;;;28.60;96981.00;;;;5032649;28;20225;-87
2023/09/01 10:58:25;;;;;;;1.80;1.53;;;;;27.70;96978.00;;;;5042699;28;20203;-88
2023/09/01 11:01:29;;;;;;;2.00;1.77;;;;;29.00;96990.00;;;;5025091;28;20224;-88
2023/09/01 11:04:31;;;;;;;1.70;1.60;;;;;29.60;96987.00;;;;5032373;28;20195;-88
2023/09/01 11:07:21;;;;;;;1.57;1.47;;;;;30.00;96987.00;;;;5023859;28;20209;-90
2023/09/01 11:10:10;;;;;;;2.27;1.80;;;;;29.70;96983.00;;;;5029621;28;20592;-88
2023/09/01 11:12:59;;;;;;;2.23;2.00;;;;;29.90;96988.00;;;;5022264;28;20198;-89
2023/09/01 11:15:48;;;;;;;1.90;1.73;;;;;29.50;96991.00;;;;5031410;28;20214;-88
2023/09/01 11:18:39;;;;;;;4.73;2.13;;;;;29.80;96987.00;;;;5028867;28;20582;-88
2023/09/01 11:21:28;;;;;;;2.37;2.13;;;;;30.20;96989.00;;;;5028405;28;20224;-88
2023/09/01 11:24:21;;;;;;;2.97;1.73;;;;;29.40;96990.00;;;;5024358;28;20218;-88
2023/09/01 11:27:11;;;;;;;2.53;1.63;;;;;28.50;96982.00;;;;5024530;28;20807;-88
2023/09/01 11:30:04;;;;;;;2.53;2.33;;;;;28.60;96976.00;;;;5027032;28;20206;-86
2023/09/01 11:32:53;;;;;;;5.50;2.83;;;;;27.50;96967.00;;;;5035232;28;20198;-86
2023/09/01 11:35:43;;;;;;;3.07;2.50;;;;;27.20;96957.00;;;;5033033;28;20211;-88
2023/09/01 11:38:32;;;;;;;2.97;2.10;;;;;26.40;96960.00;;;;5036252;28;20222;-86
2023/09/01 11:41:22;;;;;;;6.53;2.60;;;;;28.30;96963.00;;;;5034703;28;20227;-87
2023/09/01 11:44:11;;;;;;;2.50;2.20;;;;;30.00;96966.00;;;;5031309;28;20212;-88
2023/09/01 11:47:00;;;;;;;2.90;2.30;;;;;30.80;96965.00;;;;5027944;28;20674;-87
2023/09/01 11:49:49;;;;;;;6.23;2.03;;;;;29.00;96966.00;;;;5046446;28;20202;-87
2023/09/01 11:52:53;;;;;;;4.10;2.10;;;;;29.50;96978.00;;;;5032009;28;20205;-87
2023/09/01 11:55:43;;;;;;;3.27;2.97;;;;;28.70;96987.00;;;;5036243;28;20203;-87
2023/09/01 11:58:48;;;;;;;2.93;2.67;;;;;29.90;96963.00;;;;5032960;28;20197;-87
2023/09/01 12:01:41;;;;;;;2.70;2.20;;;;;30.10;96953.00;;;;5041220;28;20227;-86
2023/09/01 12:04:30;;;;;;;5.47;2.10;;;;;30.90;96964.00;;;;5027484;28;20200;-93
2023/09/01 12:07:24;;;;;;;2.30;1.77;;;;;31.80;96960.00;;;;5026506;28;20208;-87
2023/09/01 12:10:22;;;;;;;3.20;1.73;;;;;33.20;96957.00;;;;5026842;28;20201;-87
2023/09/01 12:13:12;;;;;;;1.92;1.75;;;;;32.00;96953.00;;;;5031013;28;20208;-88
2023/09/01 12:16:03;;;;;;;2.00;1.83;;;;;32.20;96946.00;;;;5032905;28;20214;-88
2023/09/01 12:18:54;;;;;;;2.30;1.67;;;;;32.90;96954.00;;;;5027217;28;20202;-88
2023/09/01 12:21:43;;;;;;;2.78;1.75;;;;;30.90;96948.00;;;;5035167;28;20223;-87
2023/09/01 12:24:32;;;;;;;2.28;1.70;;;;;30.20;96951.00;;;;5029243;28;20231;-86
2023/09/01 12:27:26;;;;;;;1.45;1.35;;;;;30.20;96939.00;;;;5031503;28;20594;-87
2023/09/01 12:30:16;;;;;;;3.33;2.50;;;;;33.00;96948.00;;;;5035005;28;20214;-88
2023/09/01 12:33:05;;;;;;;1.60;1.50;;;;;33.80;96950.00;;;;5029107;28;20207;-86
2023/09/01 12:35:54;;;;;;;3.58;2.10;;;;;34.50;96945.00;;;;5042848;28;20194;-88
2023/09/01 12:38:44;;;;;;;1.48;1.38;;;;;34.60;96941.00;;;;5039177;28;20205;-87
2023/09/01 12:41:33;;;;;;;1.30;1.20;;;;;35.10;96950.00;;;;5031525;28;20229;-87
2023/09/01 12:44:24;;;;;;;1.55;1.45;;;;;35.30;96949.00;;;;5031395;28;20447;-88
2023/09/01 12:47:12;;;;;;;1.83;1.40;;;;;35.10;96946.00;;;;5025112;28;20232;-87
2023/09/01 12:50:02;;;;;;;1.95;1.35;;;;;34.10;96940.00;;;;5027032;28;20201;-87
2023/09/01 12:52:51;;;;;;;2.60;1.42;;;;;34.30;96943.00;;;;5025960;28;20208;-87
2023/09/01 12:55:40;;;;;;;1.65;1.50;;;;;35.20;96946.00;;;;5030321;28;20227;-87
2023/09/01 12:58:31;;;;;;;3.00;2.13;;;;;35.70;96980.00;;;;5029232;28;20201;-87
2023/09/01 13:01:21;;;;;;;2.40;1.23;;;;;36.30;96946.00;;;;5029987;28;20244;-87
2023/09/01 13:04:10;;;;;;;1.40;1.30;;;;;35.40;96944.00;;;;5030944;28;20201;-87
2023/09/01 13:06:59;;;;;;;1.90;1.40;;;;;36.80;96954.00;;;;5028483;28;20686;-87
2023/09/01 13:09:48;;;;;;;1.50;1.40;;;;;36.80;96952.00;;;;5029373;28;20197;-87
2023/09/01 13:12:38;;;;;;;1.30;1.20;;;;;36.10;96943.00;;;;5029639;28;20205;-87
2023/09/01 13:15:27;;;;;;;2.10;1.80;;;;;36.20;96937.00;;;;5029412;28;20197;-87
2023/09/01 13:18:17;;;;;;;2.33;1.30;;;;;36.40;96933.00;;;;5030019;28;20205;-87
2023/09/01 13:21:06;;;;;;;1.45;1.35;;;;;34.00;96927.00;;;;5029555;28;20228;-88
2023/09/01 13:23:55;;;;;;;4.20;1.40;;;;;35.00;96933.00;;;;5028890;28;20375;-86
2023/09/01 13:26:44;;;;;;;2.55;1.40;;;;;36.10;96932.00;;;;5028667;28;20193;-86
2023/09/01 13:29:33;;;;;;;3.15;1.25;;;;;36.90;96928.00;;;;5030697;28;20204;-87
2023/09/01 13:32:22;;;;;;;1.90;1.25;;;;;33.80;96923.00;;;;5031304;28;20248;-87
2023/09/01 13:35:13;;;;;;;1.20;1.10;;;;;34.00;96986.00;;;;5028225;28;20212;-87
2023/09/01 13:38:02;;;;;;;1.20;1.15;;;;;33.60;96982.00;;;;5027437;28;20294;-86
2023/09/01 13:40:55;;;;;;;1.42;1.30;;;;;31.90;96983.00;;;;5030059;28;20225;-87
2023/09/01 13:43:44;;;;;;;1.42;1.33;;;;;32.60;96976.00;;;;5028904;28;20682;-86
2023/09/01 13:46:33;;;;;;;1.85;1.65;;;;;33.00;96959.00;;;;5027217;28;20213;-87
2023/09/01 13:49:23;;;;;;;1.63;1.52;;;;;32.80;96949.00;;;;5044658;28;20204;-88
2023/09/01 13:52:14;;;;;;;1.80;1.70;;;;;32.80;96951.00;;;;5026140;28;20339;-86
2023/09/01 13:55:03;;;;;;;3.22;1.67;;;;;32.80;96977.00;;;;5030757;28;20569;-86
2023/09/01 13:57:52;;;;;;;5.55;2.72;;;;;31.10;96988.00;;;;5033021;28;20663;-86
2023/09/01 14:00:41;;;;;;;3.92;3.45;;;;;30.00;96962.00;;;;5042229;28;20239;-87
2023/09/01 14:03:31;;;;;;;3.58;2.00;;;;;31.00;96940.00;;;;5046738;28;20229;-87
2023/09/01 14:06:20;;;;;;;1.60;1.50;;;;;32.00;96944.00;;;;5047217;28;20215;-87
2023/09/01 14:09:10;;;;;;;1.63;1.52;;;;;33.90;96931.00;;;;5037836;28;20205;-86
2023/09/01 14:11:59;;;;;;;1.90;1.67;;;;;35.10;96926.00;;;;5033952;28;20224;-86